sensor_id;sensor_type;location;lat;lon;timestamp;temperature;humidity
67603;DHT22;54417;47.454;18.918;2023-01-09T00:03:36;5.63;91.87
67603;DHT22;54417;47.454;18.918;2023-01-09T00:09:02;5.62;91.88
67603;DHT22;54417;47.454;18.918;2023-01-09T00:14:26;5.97;91.89
67603;DHT22;54417;47.454;18.918;2023-01-09T00:19:50;5.87;91.64
67603;DHT22;54417;47.454;18.918;2023-01-09T00:25:15;6.01;91.69
67603;DHT22;54417;47.454;18.918;2023-01-09T00:30:39;6.01;91.48
67603;DHT22;54417;47.454;18.918;2023-01-09T00:36:03;5.94;91.40
67603;DHT22;54417;47.454;18.918;2023-01-09T00:41:31;6.17;91.18
67603;DHT22;54417;47.454;18.918;2023-01-09T00:47:00;6.28;90.84
67603;DHT22;54417;47.454;18.918;2023-01-09T00:52:25;6.44;90.34
67603;DHT22;54417;47.454;18.918;2023-01-09T00:57:50;6.52;90.23
67603;DHT22;54417;47.454;18.918;2023-01-09T01:03:14;6.57;90.09
67603;DHT22;54417;47.454;18.918;2023-01-09T01:08:38;6.50;90.16
67603;DHT22;54417;47.454;18.918;2023-01-09T01:14:03;6.41;90.29
67603;DHT22;54417;47.454;18.918;2023-01-09T01:19:27;6.48;90.19
67603;DHT22;54417;47.454;18.918;2023-01-09T01:24:51;6.42;90.06
67603;DHT22;54417;47.454;18.918;2023-01-09T01:30:17;6.42;90.00
67603;DHT22;54417;47.454;18.918;2023-01-09T01:35:41;6.41;89.98
67603;DHT22;54417;47.454;18.918;2023-01-09T01:41:05;6.49;90.20
67603;DHT22;54417;47.454;18.918;2023-01-09T01:46:31;6.79;89.98
67603;DHT22;54417;47.454;18.918;2023-01-09T01:51:56;6.99;89.28
67603;DHT22;54417;47.454;18.918;2023-01-09T01:57:20;7.13;88.66
67603;DHT22;54417;47.454;18.918;2023-01-09T02:02:45;7.36;88.06
67603;DHT22;54417;47.454;18.918;2023-01-09T02:08:10;7.40;87.92
67603;DHT22;54417;47.454;18.918;2023-01-09T02:13:35;7.50;87.74
67603;DHT22;54417;47.454;18.918;2023-01-09T02:19:06;7.63;87.16
67603;DHT22;54417;47.454;18.918;2023-01-09T02:24:58;7.66;87.50
67603;DHT22;54417;47.454;18.918;2023-01-09T02:30:31;7.79;87.26
67603;DHT22;54417;47.454;18.918;2023-01-09T02:36:09;7.75;87.62
67603;DHT22;54417;47.454;18.918;2023-01-09T02:41:38;7.78;87.26
67603;DHT22;54417;47.454;18.918;2023-01-09T02:47:07;7.73;87.62
67603;DHT22;54417;47.454;18.918;2023-01-09T02:52:39;7.68;87.87
67603;DHT22;54417;47.454;18.918;2023-01-09T02:58:10;7.65;87.58
67603;DHT22;54417;47.454;18.918;2023-01-09T03:03:46;7.73;87.54
67603;DHT22;54417;47.454;18.918;2023-01-09T03:09:14;7.66;87.56
67603;DHT22;54417;47.454;18.918;2023-01-09T03:14:44;7.72;87.46
67603;DHT22;54417;47.454;18.918;2023-01-09T03:20:13;7.63;87.72
67603;DHT22;54417;47.454;18.918;2023-01-09T03:25:38;7.61;87.48
67603;DHT22;54417;47.454;18.918;2023-01-09T03:31:02;7.66;87.32
67603;DHT22;54417;47.454;18.918;2023-01-09T03:36:27;7.73;87.14
67603;DHT22;54417;47.454;18.918;2023-01-09T03:41:51;7.65;87.11
67603;DHT22;54417;47.454;18.918;2023-01-09T03:47:15;7.65;87.47
67603;DHT22;54417;47.454;18.918;2023-01-09T03:52:40;7.69;86.91
67603;DHT22;54417;47.454;18.918;2023-01-09T03:58:03;7.68;86.82
67603;DHT22;54417;47.454;18.918;2023-01-09T04:03:27;7.65;86.86
67603;DHT22;54417;47.454;18.918;2023-01-09T04:08:53;7.58;87.09
67603;DHT22;54417;47.454;18.918;2023-01-09T04:14:17;7.63;87.01
67603;DHT22;54417;47.454;18.918;2023-01-09T04:19:40;7.69;86.80
67603;DHT22;54417;47.454;18.918;2023-01-09T04:25:06;7.63;86.98
67603;DHT22;54417;47.454;18.918;2023-01-09T04:30:30;7.61;86.97
67603;DHT22;54417;47.454;18.918;2023-01-09T04:35:54;7.59;87.18
67603;DHT22;54417;47.454;18.918;2023-01-09T04:41:19;7.62;87.50
67603;DHT22;54417;47.454;18.918;2023-01-09T04:46:57;7.65;87.78
67603;DHT22;54417;47.454;18.918;2023-01-09T04:52:21;7.61;87.87
67603;DHT22;54417;47.454;18.918;2023-01-09T04:57:46;7.58;87.83
67603;DHT22;54417;47.454;18.918;2023-01-09T05:03:10;7.68;87.47
67603;DHT22;54417;47.454;18.918;2023-01-09T05:08:34;7.55;87.42
67603;DHT22;54417;47.454;18.918;2023-01-09T05:13:59;7.63;87.21
67603;DHT22;54417;47.454;18.918;2023-01-09T05:19:23;7.61;87.13
67603;DHT22;54417;47.454;18.918;2023-01-09T05:24:46;7.59;87.22
67603;DHT22;54417;47.454;18.918;2023-01-09T05:30:12;7.52;87.66
67603;DHT22;54417;47.454;18.918;2023-01-09T05:35:39;7.58;87.41
67603;DHT22;54417;47.454;18.918;2023-01-09T05:41:03;7.58;87.41
67603;DHT22;54417;47.454;18.918;2023-01-09T05:46:28;7.69;87.28
67603;DHT22;54417;47.454;18.918;2023-01-09T05:51:52;7.69;86.86
67603;DHT22;54417;47.454;18.918;2023-01-09T05:57:16;7.66;87.15
67603;DHT22;54417;47.454;18.918;2023-01-09T06:02:41;7.55;87.11
67603;DHT22;54417;47.454;18.918;2023-01-09T06:08:05;7.44;87.28
67603;DHT22;54417;47.454;18.918;2023-01-09T06:13:29;7.55;86.95
67603;DHT22;54417;47.454;18.918;2023-01-09T06:18:55;7.59;87.13
67603;DHT22;54417;47.454;18.918;2023-01-09T06:24:18;7.69;86.18
67603;DHT22;54417;47.454;18.918;2023-01-09T06:29:42;7.62;86.89
67603;DHT22;54417;47.454;18.918;2023-01-09T06:35:08;7.68;86.83
67603;DHT22;54417;47.454;18.918;2023-01-09T06:40:33;7.68;86.86
67603;DHT22;54417;47.454;18.918;2023-01-09T06:45:57;7.63;86.84
67603;DHT22;54417;47.454;18.918;2023-01-09T06:51:22;7.71;86.79
67603;DHT22;54417;47.454;18.918;2023-01-09T06:56:46;7.62;86.98
67603;DHT22;54417;47.454;18.918;2023-01-09T07:02:16;7.58;87.20
67603;DHT22;54417;47.454;18.918;2023-01-09T07:07:42;7.56;87.25
67603;DHT22;54417;47.454;18.918;2023-01-09T07:13:05;7.47;87.49
67603;DHT22;54417;47.454;18.918;2023-01-09T07:18:29;7.52;87.23
67603;DHT22;54417;47.454;18.918;2023-01-09T07:23:55;7.58;86.95
67603;DHT22;54417;47.454;18.918;2023-01-09T07:29:19;7.58;87.22
67603;DHT22;54417;47.454;18.918;2023-01-09T07:34:43;7.52;87.18
67603;DHT22;54417;47.454;18.918;2023-01-09T07:40:09;7.56;86.92
67603;DHT22;54417;47.454;18.918;2023-01-09T07:45:33;7.54;85.98
67603;DHT22;54417;47.454;18.918;2023-01-09T07:50:57;7.68;86.11
67603;DHT22;54417;47.454;18.918;2023-01-09T07:56:23;7.72;85.84
67603;DHT22;54417;47.454;18.918;2023-01-09T08:01:47;7.72;85.52
67603;DHT22;54417;47.454;18.918;2023-01-09T08:07:11;7.42;86.11
67603;DHT22;54417;47.454;18.918;2023-01-09T08:12:38;7.38;87.23
67603;DHT22;54417;47.454;18.918;2023-01-09T08:18:04;7.42;87.82
67603;DHT22;54417;47.454;18.918;2023-01-09T08:23:28;7.13;88.62
67603;DHT22;54417;47.454;18.918;2023-01-09T08:28:53;7.18;89.14
67603;DHT22;54417;47.454;18.918;2023-01-09T08:34:17;7.13;89.55
67603;DHT22;54417;47.454;18.918;2023-01-09T08:39:41;7.07;89.74
67603;DHT22;54417;47.454;18.918;2023-01-09T08:45:08;7.20;89.49
67603;DHT22;54417;47.454;18.918;2023-01-09T08:50:50;7.23;90.13
67603;DHT22;54417;47.454;18.918;2023-01-09T08:56:15;7.28;90.38
67603;DHT22;54417;47.454;18.918;2023-01-09T09:01:40;7.28;90.05
67603;DHT22;54417;47.454;18.918;2023-01-09T09:07:04;7.11;89.94
67603;DHT22;54417;47.454;18.918;2023-01-09T09:12:28;7.01;90.00
67603;DHT22;54417;47.454;18.918;2023-01-09T09:17:55;7.08;89.67
67603;DHT22;54417;47.454;18.918;2023-01-09T09:23:19;6.96;90.21
67603;DHT22;54417;47.454;18.918;2023-01-09T09:28:44;7.11;90.18
67603;DHT22;54417;47.454;18.918;2023-01-09T09:34:09;7.07;90.11
67603;DHT22;54417;47.454;18.918;2023-01-09T09:39:34;7.00;90.02
67603;DHT22;54417;47.454;18.918;2023-01-09T09:45:10;6.83;90.61
67603;DHT22;54417;47.454;18.918;2023-01-09T09:50:56;6.66;90.90
67603;DHT22;54417;47.454;18.918;2023-01-09T09:56:23;6.56;90.76
67603;DHT22;54417;47.454;18.918;2023-01-09T10:01:51;6.61;91.11
67603;DHT22;54417;47.454;18.918;2023-01-09T10:07:21;6.62;91.19
67603;DHT22;54417;47.454;18.918;2023-01-09T10:12:50;6.72;90.58
67603;DHT22;54417;47.454;18.918;2023-01-09T10:18:21;6.76;90.60
67603;DHT22;54417;47.454;18.918;2023-01-09T10:24:21;6.53;90.96
67603;DHT22;54417;47.454;18.918;2023-01-09T10:29:57;6.46;91.04
67603;DHT22;54417;47.454;18.918;2023-01-09T10:35:34;6.55;90.81
67603;DHT22;54417;47.454;18.918;2023-01-09T10:41:15;6.64;90.80
67603;DHT22;54417;47.454;18.918;2023-01-09T10:46:45;6.46;90.68
67603;DHT22;54417;47.454;18.918;2023-01-09T10:52:14;6.59;90.96
67603;DHT22;54417;47.454;18.918;2023-01-09T10:57:42;6.48;90.91
67603;DHT22;54417;47.454;18.918;2023-01-09T11:03:11;6.34;91.47
67603;DHT22;54417;47.454;18.918;2023-01-09T11:08:37;6.29;91.17
67603;DHT22;54417;47.454;18.918;2023-01-09T11:14:12;6.31;91.34
67603;DHT22;54417;47.454;18.918;2023-01-09T11:19:37;6.44;91.18
67603;DHT22;54417;47.454;18.918;2023-01-09T11:25:02;6.53;91.24
67603;DHT22;54417;47.454;18.918;2023-01-09T11:30:29;6.55;91.26
67603;DHT22;54417;47.454;18.918;2023-01-09T11:35:59;6.52;91.46
67603;DHT22;54417;47.454;18.918;2023-01-09T11:41:25;6.49;91.62
67603;DHT22;54417;47.454;18.918;2023-01-09T11:46:50;6.49;91.56
67603;DHT22;54417;47.454;18.918;2023-01-09T11:52:16;6.76;91.31
67603;DHT22;54417;47.454;18.918;2023-01-09T11:57:41;6.86;91.18
67603;DHT22;54417;47.454;18.918;2023-01-09T12:03:10;7.07;91.08
67603;DHT22;54417;47.454;18.918;2023-01-09T12:08:44;6.92;91.16
67603;DHT22;54417;47.454;18.918;2023-01-09T12:14:24;7.08;90.76
67603;DHT22;54417;47.454;18.918;2023-01-09T12:20:01;6.94;90.92
67603;DHT22;54417;47.454;18.918;2023-01-09T12:25:37;6.85;91.54
67603;DHT22;54417;47.454;18.918;2023-01-09T12:31:14;6.99;91.20
67603;DHT22;54417;47.454;18.918;2023-01-09T12:36:51;6.83;91.30
67603;DHT22;54417;47.454;18.918;2023-01-09T12:42:29;6.90;91.55
67603;DHT22;54417;47.454;18.918;2023-01-09T12:48:01;6.83;91.54
67603;DHT22;54417;47.454;18.918;2023-01-09T12:53:31;6.87;91.58
67603;DHT22;54417;47.454;18.918;2023-01-09T12:58:58;6.77;91.60
67603;DHT22;54417;47.454;18.918;2023-01-09T13:04:27;6.73;92.06
67603;DHT22;54417;47.454;18.918;2023-01-09T13:09:58;6.65;92.16
67603;DHT22;54417;47.454;18.918;2023-01-09T13:17:31;6.73;91.98
67603;DHT22;54417;47.454;18.918;2023-01-09T13:22:59;6.85;92.05
67603;DHT22;54417;47.454;18.918;2023-01-09T13:28:25;6.85;92.12
67603;DHT22;54417;47.454;18.918;2023-01-09T13:33:53;7.03;91.77
67603;DHT22;54417;47.454;18.918;2023-01-09T13:39:20;7.04;91.66
67603;DHT22;54417;47.454;18.918;2023-01-09T13:44:45;7.08;91.76
67603;DHT22;54417;47.454;18.918;2023-01-09T13:50:26;7.18;91.69
67603;DHT22;54417;47.454;18.918;2023-01-09T13:56:04;7.13;91.71
67603;DHT22;54417;47.454;18.918;2023-01-09T14:01:41;7.27;91.43
67603;DHT22;54417;47.454;18.918;2023-01-09T14:07:24;7.28;91.45
67603;DHT22;54417;47.454;18.918;2023-01-09T14:12:49;7.04;91.85
67603;DHT22;54417;47.454;18.918;2023-01-09T14:18:17;7.18;91.85
67603;DHT22;54417;47.454;18.918;2023-01-09T14:23:53;7.23;91.68
67603;DHT22;54417;47.454;18.918;2023-01-09T14:29:41;7.17;91.67
67603;DHT22;54417;47.454;18.918;2023-01-09T14:35:22;7.23;91.78
67603;DHT22;54417;47.454;18.918;2023-01-09T14:40:52;7.04;92.30
67603;DHT22;54417;47.454;18.918;2023-01-09T14:46:18;6.96;92.53
67603;DHT22;54417;47.454;18.918;2023-01-09T14:51:44;7.00;92.61
67603;DHT22;54417;47.454;18.918;2023-01-09T14:57:27;6.83;92.96
67603;DHT22;54417;47.454;18.918;2023-01-09T15:02:52;6.80;93.04
67603;DHT22;54417;47.454;18.918;2023-01-09T15:08:18;6.73;93.31
67603;DHT22;54417;47.454;18.918;2023-01-09T15:13:46;6.76;93.22
67603;DHT22;54417;47.454;18.918;2023-01-09T15:19:12;6.66;93.43
67603;DHT22;54417;47.454;18.918;2023-01-09T15:24:37;6.55;93.67
67603;DHT22;54417;47.454;18.918;2023-01-09T15:30:14;6.57;93.70
67603;DHT22;54417;47.454;18.918;2023-01-09T15:35:40;6.72;93.49
67603;DHT22;54417;47.454;18.918;2023-01-09T15:41:08;6.80;93.42
67603;DHT22;54417;47.454;18.918;2023-01-09T15:46:33;6.85;93.09
67603;DHT22;54417;47.454;18.918;2023-01-09T15:51:57;7.03;92.70
67603;DHT22;54417;47.454;18.918;2023-01-09T15:57:30;6.90;92.71
67603;DHT22;54417;47.454;18.918;2023-01-09T16:02:58;6.69;92.79
67603;DHT22;54417;47.454;18.918;2023-01-09T16:08:36;6.72;92.88
67603;DHT22;54417;47.454;18.918;2023-01-09T16:14:11;6.87;92.72
67603;DHT22;54417;47.454;18.918;2023-01-09T16:19:46;6.93;92.56
67603;DHT22;54417;47.454;18.918;2023-01-09T16:25:25;6.96;92.53
67603;DHT22;54417;47.454;18.918;2023-01-09T16:30:54;6.85;92.66
67603;DHT22;54417;47.454;18.918;2023-01-09T16:36:20;6.97;92.54
67603;DHT22;54417;47.454;18.918;2023-01-09T16:41:44;7.07;92.40
67603;DHT22;54417;47.454;18.918;2023-01-09T16:47:26;7.14;92.41
67603;DHT22;54417;47.454;18.918;2023-01-09T16:52:51;7.24;92.13
67603;DHT22;54417;47.454;18.918;2023-01-09T16:58:18;7.30;91.99
67603;DHT22;54417;47.454;18.918;2023-01-09T17:03:46;7.31;91.99
67603;DHT22;54417;47.454;18.918;2023-01-09T17:09:14;7.32;92.03
67603;DHT22;54417;47.454;18.918;2023-01-09T17:14:38;7.31;92.16
67603;DHT22;54417;47.454;18.918;2023-01-09T17:20:02;7.28;92.17
67603;DHT22;54417;47.454;18.918;2023-01-09T17:25:30;7.23;92.28
67603;DHT22;54417;47.454;18.918;2023-01-09T17:31:11;7.13;92.27
67603;DHT22;54417;47.454;18.918;2023-01-09T17:36:36;7.00;92.69
67603;DHT22;54417;47.454;18.918;2023-01-09T17:42:01;6.99;92.67
67603;DHT22;54417;47.454;18.918;2023-01-09T17:47:25;6.89;92.82
67603;DHT22;54417;47.454;18.918;2023-01-09T17:52:49;6.72;93.27
67603;DHT22;54417;47.454;18.918;2023-01-09T17:58:23;6.77;93.28
67603;DHT22;54417;47.454;18.918;2023-01-09T18:03:48;6.87;93.15
67603;DHT22;54417;47.454;18.918;2023-01-09T18:09:14;6.96;92.96
67603;DHT22;54417;47.454;18.918;2023-01-09T18:14:40;6.83;93.10
67603;DHT22;54417;47.454;18.918;2023-01-09T18:20:05;6.97;92.85
67603;DHT22;54417;47.454;18.918;2023-01-09T18:25:29;6.96;92.81
67603;DHT22;54417;47.454;18.918;2023-01-09T18:30:54;6.85;93.10
67603;DHT22;54417;47.454;18.918;2023-01-09T18:36:20;6.99;92.98
67603;DHT22;54417;47.454;18.918;2023-01-09T18:41:45;7.10;92.67
67603;DHT22;54417;47.454;18.918;2023-01-09T18:47:10;6.94;92.60
67603;DHT22;54417;47.454;18.918;2023-01-09T18:52:34;6.85;92.49
67603;DHT22;54417;47.454;18.918;2023-01-09T18:57:57;6.85;92.58
67603;DHT22;54417;47.454;18.918;2023-01-09T19:03:23;6.90;92.51
67603;DHT22;54417;47.454;18.918;2023-01-09T19:08:47;6.82;92.73
67603;DHT22;54417;47.454;18.918;2023-01-09T19:14:11;6.89;92.52
67603;DHT22;54417;47.454;18.918;2023-01-09T19:19:37;6.75;92.82
67603;DHT22;54417;47.454;18.918;2023-01-09T19:25:01;6.66;93.07
67603;DHT22;54417;47.454;18.918;2023-01-09T19:30:25;6.62;93.21
67603;DHT22;54417;47.454;18.918;2023-01-09T19:35:51;6.75;93.03
67603;DHT22;54417;47.454;18.918;2023-01-09T19:41:16;6.77;92.98
67603;DHT22;54417;47.454;18.918;2023-01-09T19:46:41;6.83;92.95
67603;DHT22;54417;47.454;18.918;2023-01-09T19:52:07;6.87;92.94
67603;DHT22;54417;47.454;18.918;2023-01-09T19:57:31;6.92;92.68
67603;DHT22;54417;47.454;18.918;2023-01-09T20:02:57;6.97;92.31
67603;DHT22;54417;47.454;18.918;2023-01-09T20:08:23;6.94;92.29
67603;DHT22;54417;47.454;18.918;2023-01-09T20:13:47;6.90;92.32
67603;DHT22;54417;47.454;18.918;2023-01-09T20:19:12;6.85;92.59
67603;DHT22;54417;47.454;18.918;2023-01-09T20:24:38;6.75;92.77
67603;DHT22;54417;47.454;18.918;2023-01-09T20:30:03;6.69;92.55
67603;DHT22;54417;47.454;18.918;2023-01-09T20:35:27;6.59;92.99
67603;DHT22;54417;47.454;18.918;2023-01-09T20:40:52;6.50;93.00
67603;DHT22;54417;47.454;18.918;2023-01-09T20:46:16;6.61;92.88
67603;DHT22;54417;47.454;18.918;2023-01-09T20:51:41;6.57;93.10
67603;DHT22;54417;47.454;18.918;2023-01-09T20:57:07;6.61;92.81
67603;DHT22;54417;47.454;18.918;2023-01-09T21:02:31;6.59;93.02
67603;DHT22;54417;47.454;18.918;2023-01-09T21:07:55;6.56;93.06
67603;DHT22;54417;47.454;18.918;2023-01-09T21:13:20;6.59;93.18
67603;DHT22;54417;47.454;18.918;2023-01-09T21:18:45;6.59;93.19
67603;DHT22;54417;47.454;18.918;2023-01-09T21:24:09;6.62;93.18
67603;DHT22;54417;47.454;18.918;2023-01-09T21:29:35;6.61;93.04
67603;DHT22;54417;47.454;18.918;2023-01-09T21:34:59;6.69;92.87
67603;DHT22;54417;47.454;18.918;2023-01-09T21:40:25;6.62;92.86
67603;DHT22;54417;47.454;18.918;2023-01-09T21:45:51;6.62;92.98
67603;DHT22;54417;47.454;18.918;2023-01-09T21:51:34;6.61;93.03
67603;DHT22;54417;47.454;18.918;2023-01-09T21:57:00;6.56;93.12
67603;DHT22;54417;47.454;18.918;2023-01-09T22:02:27;6.50;93.16
67603;DHT22;54417;47.454;18.918;2023-01-09T22:07:50;6.59;93.02
67603;DHT22;54417;47.454;18.918;2023-01-09T22:13:15;6.55;93.00
67603;DHT22;54417;47.454;18.918;2023-01-09T22:18:40;6.56;93.01
67603;DHT22;54417;47.454;18.918;2023-01-09T22:24:05;6.55;93.13
67603;DHT22;54417;47.454;18.918;2023-01-09T22:29:29;6.52;93.16
67603;DHT22;54417;47.454;18.918;2023-01-09T22:34:54;6.56;93.13
67603;DHT22;54417;47.454;18.918;2023-01-09T22:40:18;6.48;93.33
67603;DHT22;54417;47.454;18.918;2023-01-09T22:45:42;6.53;93.32
67603;DHT22;54417;47.454;18.918;2023-01-09T22:51:11;6.45;93.37
67603;DHT22;54417;47.454;18.918;2023-01-09T22:56:35;6.50;93.31
67603;DHT22;54417;47.454;18.918;2023-01-09T23:01:59;6.46;93.40
67603;DHT22;54417;47.454;18.918;2023-01-09T23:07:25;6.44;93.41
67603;DHT22;54417;47.454;18.918;2023-01-09T23:12:50;6.45;93.37
67603;DHT22;54417;47.454;18.918;2023-01-09T23:18:14;6.52;93.36
67603;DHT22;54417;47.454;18.918;2023-01-09T23:23:39;6.45;93.23
67603;DHT22;54417;47.454;18.918;2023-01-09T23:29:03;6.42;93.27
67603;DHT22;54417;47.454;18.918;2023-01-09T23:34:28;6.36;93.23
67603;DHT22;54417;47.454;18.918;2023-01-09T23:39:54;6.38;93.33
67603;DHT22;54417;47.454;18.918;2023-01-09T23:45:17;6.38;93.28
67603;DHT22;54417;47.454;18.918;2023-01-09T23:50:42;6.36;93.42
67603;DHT22;54417;47.454;18.918;2023-01-09T23:56:08;6.34;93.28
